Time;durP1;ratioP1;P1;durP2;ratioP2;P2;SDS_P1;SDS_P2;PMS_P1;PMS_P2;Temp;Humidity;BMP_temperature;BMP_pressure;BME280_temperature;BME280_humidity;BME280_pressure;Samples;Min_cycle;Max_cycle;Signal;HPM_P1;HPM_P2
2022/11/13 00:04:57;;;;;;;338.30;30.58;;;;;;;6.44;70.36;101116.09;10263860;28;20051;-61
2022/11/13 00:09:59;;;;;;;256.20;22.27;;;;;;;6.34;70.23;101112.88;10294227;28;20065;-62
2022/11/13 00:15:00;;;;;;;333.38;28.58;;;;;;;6.26;70.51;101107.88;10271158;28;20050;-61
2022/11/13 00:20:03;;;;;;;214.23;24.70;;;;;;;6.38;70.07;101100.66;10278333;28;20038;-62
2022/11/13 00:25:04;;;;;;;106.82;20.33;;;;;;;6.42;69.95;101103.16;10277098;28;20047;-61
2022/11/13 00:30:07;;;;;;;368.73;34.20;;;;;;;6.32;69.79;101096.47;10285260;28;20051;-61
2022/11/13 00:35:08;;;;;;;276.15;27.95;;;;;;;6.14;70.20;101095.09;10261979;28;20478;-61
2022/11/13 00:40:10;;;;;;;334.20;37.80;;;;;;;6.13;70.74;101098.59;10263344;28;20086;-61
2022/11/13 00:45:13;;;;;;;322.85;37.20;;;;;;;6.15;70.30;101091.63;10281646;28;20928;-61
2022/11/13 00:50:14;;;;;;;341.50;32.78;;;;;;;6.06;70.36;101089.22;10265003;28;20051;-61
2022/11/13 00:55:16;;;;;;;180.80;22.65;;;;;;;6.03;70.18;101084.13;10292713;28;20058;-61
2022/11/13 01:00:18;;;;;;;164.07;17.25;;;;;;;5.95;70.43;101082.59;10269435;28;20058;-61
2022/11/13 01:05:19;;;;;;;150.63;16.75;;;;;;;5.64;70.34;101081.53;10276561;28;20058;-61
2022/11/13 01:10:22;;;;;;;234.40;26.83;;;;;;;5.61;70.55;101084.22;10266049;28;20045;-61
2022/11/13 01:15:24;;;;;;;207.07;21.17;;;;;;;5.51;70.03;101074.03;10270104;28;20058;-62
2022/11/13 01:20:26;;;;;;;189.88;14.95;;;;;;;5.37;69.68;101080.41;10271179;28;20058;-62
2022/11/13 01:25:28;;;;;;;179.00;14.30;;;;;;;5.24;70.27;101079.78;10306779;28;20053;-61
2022/11/13 01:30:30;;;;;;;166.25;18.67;;;;;;;4.98;70.10;101070.81;10285103;28;20517;-61
2022/11/13 01:35:32;;;;;;;682.50;38.35;;;;;;;4.76;70.70;101059.94;10277030;28;20055;-62
2022/11/13 01:40:33;;;;;;;783.33;27.42;;;;;;;4.57;71.21;101063.78;10279621;28;20058;-61
2022/11/13 01:46:04;;;;;;;443.00;19.02;;;;;;;4.66;71.16;101067.06;10280338;28;20057;-61
2022/11/13 01:51:12;;;;;;;371.50;22.83;;;;;;;4.61;71.41;101063.69;10285846;28;20106;-62
2022/11/13 01:56:15;;;;;;;705.10;36.33;;;;;;;4.79;71.25;101053.88;10267799;28;20054;-62
2022/11/13 02:01:17;;;;;;;853.67;36.30;;;;;;;4.86;71.04;101045.13;10268464;28;20045;-62
2022/11/13 02:06:20;;;;;;;1085.85;34.00;;;;;;;4.75;70.95;101047.91;10267502;28;20047;-62
2022/11/13 02:11:22;;;;;;;466.63;23.10;;;;;;;4.88;71.17;101040.75;10275660;28;20047;-62
2022/11/13 02:16:23;;;;;;;421.35;22.00;;;;;;;4.99;70.85;101037.06;10268748;28;20046;-62
2022/11/13 02:21:40;;;;;;;517.33;27.35;;;;;;;5.02;70.43;101037.03;10266655;28;20330;-63
2022/11/13 02:26:43;;;;;;;303.30;15.93;;;;;;;4.98;70.57;101037.09;10285359;28;20046;-62
2022/11/13 02:31:45;;;;;;;390.10;16.30;;;;;;;4.91;70.39;101030.31;10267450;28;20522;-62
2022/11/13 02:36:47;;;;;;;315.30;16.98;;;;;;;5.01;70.77;101029.25;10267276;28;20702;-61
2022/11/13 02:41:48;;;;;;;572.88;27.90;;;;;;;4.97;70.17;101022.41;10266788;28;20057;-62
2022/11/13 02:46:50;;;;;;;343.45;17.42;;;;;;;4.89;70.55;101024.31;10281610;28;20050;-62
2022/11/13 02:51:52;;;;;;;299.75;26.05;;;;;;;4.97;70.35;101028.47;10275150;28;20735;-63
2022/11/13 02:56:53;;;;;;;242.15;18.75;;;;;;;4.85;69.97;101020.06;10268535;28;20066;-61
2022/11/13 03:01:55;;;;;;;189.25;15.63;;;;;;;4.91;70.12;101015.63;10268445;28;20571;-61
2022/11/13 03:06:57;;;;;;;162.52;11.60;;;;;;;5.01;70.19;101011.97;10272414;28;20051;-62
2022/11/13 03:11:59;;;;;;;265.33;17.95;;;;;;;5.08;69.59;101010.97;10273795;28;20050;-62
2022/11/13 03:17:01;;;;;;;207.82;16.25;;;;;;;5.01;69.27;101008.50;10274827;28;20137;-62
2022/11/13 03:22:03;;;;;;;184.48;17.15;;;;;;;4.92;69.33;101004.38;10272867;28;20054;-62
2022/11/13 03:27:07;;;;;;;148.00;12.65;;;;;;;4.87;69.46;101010.53;10290492;28;20042;-62
2022/11/13 03:32:09;;;;;;;201.73;14.23;;;;;;;4.86;69.26;101009.66;10295885;28;20058;-62
2022/11/13 03:37:10;;;;;;;190.00;14.52;;;;;;;4.86;69.22;101001.06;10280888;28;20058;-61
2022/11/13 03:42:12;;;;;;;126.50;11.82;;;;;;;4.86;69.08;100998.47;10271586;28;20043;-62
2022/11/13 03:47:14;;;;;;;270.55;16.42;;;;;;;4.90;68.98;100997.50;10290348;28;20533;-61
2022/11/13 03:52:15;;;;;;;371.67;23.65;;;;;;;4.78;68.46;100992.56;10270975;28;20061;-62
2022/11/13 03:57:17;;;;;;;255.07;13.38;;;;;;;4.56;68.94;100990.38;10274980;28;20059;-62
2022/11/13 04:02:19;;;;;;;395.33;21.67;;;;;;;4.62;68.84;100990.25;10277487;28;20392;-62
2022/11/13 04:07:21;;;;;;;422.27;22.63;;;;;;;4.51;68.73;100987.03;10267823;28;20058;-62
2022/11/13 04:12:22;;;;;;;371.27;18.20;;;;;;;4.51;69.08;100984.44;10267345;28;20038;-62
2022/11/13 04:17:24;;;;;;;281.35;17.38;;;;;;;4.54;68.97;100989.53;10277575;28;20050;-61
2022/11/13 04:22:26;;;;;;;290.42;14.18;;;;;;;4.58;68.87;100983.44;10278034;28;20070;-62
2022/11/13 04:27:27;;;;;;;358.42;20.63;;;;;;;4.60;69.07;100981.66;10271336;28;20055;-61
2022/11/13 04:32:31;;;;;;;369.02;20.25;;;;;;;4.61;68.77;100974.75;10279736;28;20214;-61
2022/11/13 04:37:32;;;;;;;409.02;19.95;;;;;;;4.43;68.69;100973.34;10278893;28;20207;-62
2022/11/13 04:42:49;;;;;;;238.05;14.63;;;;;;;4.42;69.30;100969.06;10264144;28;20474;-61
2022/11/13 04:47:51;;;;;;;291.40;14.88;;;;;;;4.59;69.24;100963.56;10269765;28;20043;-62
2022/11/13 04:52:53;;;;;;;592.88;25.08;;;;;;;4.32;69.02;100954.56;10287387;28;20046;-62
2022/11/13 04:57:54;;;;;;;469.35;19.65;;;;;;;4.26;69.42;100941.72;10288311;28;20050;-62
2022/11/13 05:02:56;;;;;;;600.70;28.55;;;;;;;4.18;69.55;100943.59;10274959;28;20062;-61
2022/11/13 05:07:58;;;;;;;347.20;14.00;;;;;;;4.39;69.81;100930.25;10270058;28;20055;-62
2022/11/13 05:12:59;;;;;;;426.52;17.27;;;;;;;4.41;69.56;100923.31;10275995;28;20047;-62
2022/11/13 05:18:01;;;;;;;354.13;16.45;;;;;;;4.48;69.57;100922.31;10290018;28;20062;-61
2022/11/13 05:23:03;;;;;;;368.05;17.55;;;;;;;4.53;69.18;100924.81;10271271;28;20050;-61
2022/11/13 05:28:04;;;;;;;594.55;28.00;;;;;;;4.56;69.04;100920.44;10276830;28;20050;-62
2022/11/13 05:33:06;;;;;;;453.30;23.88;;;;;;;4.49;69.32;100913.69;10276899;28;20055;-62
2022/11/13 05:38:08;;;;;;;453.55;21.58;;;;;;;4.22;69.09;100898.66;10267961;28;20061;-61
2022/11/13 05:43:10;;;;;;;450.65;18.85;;;;;;;4.27;69.44;100906.34;10288368;28;20062;-61
2022/11/13 05:48:11;;;;;;;615.45;31.77;;;;;;;4.09;69.04;100904.91;10298090;28;20553;-61
2022/11/13 05:53:13;;;;;;;263.52;14.45;;;;;;;4.13;69.65;100897.97;10284481;28;20042;-62
2022/11/13 05:58:15;;;;;;;394.65;17.75;;;;;;;4.16;69.81;100897.91;10291390;28;20081;-61
2022/11/13 06:03:17;;;;;;;326.55;17.65;;;;;;;4.30;69.63;100899.38;10273243;28;20051;-62
2022/11/13 06:08:18;;;;;;;445.23;21.60;;;;;;;4.28;69.56;100889.91;10273112;28;20062;-62
2022/11/13 06:13:20;;;;;;;377.85;18.02;;;;;;;4.34;69.49;100893.25;10286567;28;20077;-62
2022/11/13 06:18:22;;;;;;;665.85;29.75;;;;;;;4.38;68.95;100889.72;10267721;28;20391;-62
2022/11/13 06:23:27;;;;;;;250.98;13.10;;;;;;;4.17;69.01;100884.09;10287245;28;20517;-61
2022/11/13 06:28:29;;;;;;;244.93;14.55;;;;;;;4.00;69.48;100879.22;10276625;28;20055;-61
2022/11/13 06:33:32;;;;;;;304.63;15.73;;;;;;;4.12;69.52;100878.13;10267877;28;20050;-61
2022/11/13 06:38:35;;;;;;;245.57;14.27;;;;;;;4.19;69.27;100870.22;10277540;28;20063;-62
2022/11/13 06:43:37;;;;;;;646.45;34.65;;;;;;;4.10;68.94;100861.78;10302704;28;20050;-62
2022/11/13 06:48:39;;;;;;;481.15;23.50;;;;;;;4.08;69.23;100863.53;10278505;28;20065;-62
2022/11/13 06:53:42;;;;;;;323.50;18.58;;;;;;;4.21;69.09;100852.09;10270643;28;20038;-61
2022/11/13 06:58:44;;;;;;;160.35;10.52;;;;;;;4.18;69.34;100855.59;10268145;28;20046;-61
2022/11/13 07:03:45;;;;;;;339.58;15.52;;;;;;;4.11;69.43;100856.56;10267511;28;20870;-61
2022/11/13 07:08:47;;;;;;;451.35;23.33;;;;;;;4.15;69.20;100854.78;10284862;28;20049;-61
2022/11/13 07:13:49;;;;;;;360.17;18.20;;;;;;;4.26;68.82;100855.41;10267165;28;20046;-62
2022/11/13 07:18:52;;;;;;;213.27;11.00;;;;;;;4.30;68.92;100857.94;10264548;28;20051;-62
2022/11/13 07:23:54;;;;;;;361.25;18.88;;;;;;;4.28;68.75;100858.84;10282970;28;20062;-63
2022/11/13 07:28:56;;;;;;;639.30;31.52;;;;;;;4.31;68.63;100853.63;10269043;28;20043;-63
2022/11/13 07:33:58;;;;;;;353.95;17.33;;;;;;;4.37;68.82;100841.38;10265007;28;20141;-62
2022/11/13 07:38:59;;;;;;;272.98;13.95;;;;;;;4.48;68.84;100842.03;10266916;28;20046;-61
2022/11/13 07:44:01;;;;;;;350.40;19.63;;;;;;;4.44;68.76;100844.69;10264734;28;20057;-62
2022/11/13 07:49:09;;;;;;;167.90;12.82;;;;;;;4.46;68.85;100838.63;10268902;28;20514;-62
2022/11/13 07:54:11;;;;;;;1015.95;48.80;;;;;;;4.51;68.50;100841.13;10266558;28;20047;-61
2022/11/13 07:59:13;;;;;;;361.85;14.50;;;;;;;4.28;68.56;100830.34;10263501;28;20051;-62
2022/11/13 08:04:15;;;;;;;753.83;36.83;;;;;;;4.52;68.31;100827.25;10262372;28;20097;-65
2022/11/13 08:09:16;;;;;;;311.40;16.67;;;;;;;4.71;68.38;100815.63;10273153;28;20053;-63
2022/11/13 08:14:18;;;;;;;573.05;24.95;;;;;;;4.70;67.69;100812.19;10263078;28;20047;-62
2022/11/13 08:19:20;;;;;;;500.10;24.45;;;;;;;4.73;67.44;100811.28;10269744;28;20064;-62
2022/11/13 08:24:21;;;;;;;294.08;15.88;;;;;;;4.59;67.86;100819.34;10279256;28;20676;-62
2022/11/13 08:29:23;;;;;;;1165.88;39.05;;;;;;;4.51;67.40;100821.25;10271548;28;20541;-62
2022/11/13 08:34:25;;;;;;;337.70;14.98;;;;;;;4.32;68.00;100814.72;10262219;28;20047;-62
2022/11/13 08:39:26;;;;;;;540.70;18.83;;;;;;;4.34;67.58;100815.56;10262517;28;20046;-61
2022/11/13 08:44:28;;;;;;;677.90;24.17;;;;;;;4.19;67.40;100815.84;10264327;28;20049;-64
2022/11/13 08:49:30;;;;;;;191.93;11.88;;;;;;;4.09;67.86;100811.72;10275367;28;20370;-63
2022/11/13 08:54:32;;;;;;;529.85;25.50;;;;;;;4.66;68.12;100804.50;10264008;28;20117;-64
2022/11/13 08:59:34;;;;;;;246.65;11.77;;;;;;;4.76;67.16;100800.81;10271354;28;20506;-62
2022/11/13 09:04:35;;;;;;;275.13;12.48;;;;;;;5.04;66.90;100794.16;10274225;28;20054;-62
2022/11/13 09:09:37;;;;;;;219.68;13.88;;;;;;;5.01;66.63;100778.66;10269264;28;20050;-62
2022/11/13 09:14:39;;;;;;;212.88;12.68;;;;;;;5.42;66.57;100773.31;10267787;28;20290;-61
2022/11/13 09:19:41;;;;;;;71.20;10.05;;;;;;;5.57;66.14;100772.06;10296497;28;20047;-62
2022/11/13 09:24:42;;;;;;;46.50;9.32;;;;;;;5.75;66.37;100763.78;10266550;28;20050;-63
2022/11/13 09:29:44;;;;;;;82.18;11.40;;;;;;;6.12;66.33;100766.22;10265670;28;20519;-62
2022/11/13 09:34:45;;;;;;;176.68;13.18;;;;;;;6.26;64.94;100761.53;10268934;28;20061;-62
2022/11/13 09:39:47;;;;;;;139.77;13.90;;;;;;;6.26;64.76;100749.41;10282128;28;20051;-62
2022/11/13 09:44:54;;;;;;;57.45;11.82;;;;;;;6.04;64.81;100753.44;10275735;28;20054;-62
2022/11/13 10:34:32;;;;;;;13.45;10.85;;;;;;;6.87;65.26;100672.13;10330466;28;20050;-78
2022/11/13 10:39:44;;;;;;;12.65;10.13;;;;;;;6.83;65.54;100665.31;10329233;28;20108;-78
2022/11/13 10:44:58;;;;;;;9.55;8.50;;;;;;;6.86;65.30;100663.47;10331132;28;20057;-78
2022/11/13 10:50:26;;;;;;;14.45;11.05;;;;;;;6.86;65.11;100652.19;10344211;28;20804;-78
2022/11/13 10:55:39;;;;;;;13.20;10.32;;;;;;;6.85;65.54;100646.19;10331897;28;20964;-78
2022/11/13 11:00:47;;;;;;;9.13;8.00;;;;;;;6.76;65.60;100638.66;10330649;28;20045;-78
2022/11/13 11:06:01;;;;;;;7.45;6.43;;;;;;;6.80;64.32;100626.41;10323427;28;20408;-78
2022/11/13 11:16:38;;;;;;;8.27;7.20;;;;;;;6.94;65.32;100593.00;10330712;28;20597;-76
2022/11/13 11:21:48;;;;;;;9.02;6.45;;;;;;;7.06;64.88;100590.00;10336781;28;20137;-78
2022/11/13 11:27:35;;;;;;;7.05;5.82;;;;;;;7.13;64.64;100581.06;10341768;28;20042;-78
2022/11/13 11:33:01;;;;;;;7.53;6.25;;;;;;;7.33;64.42;100562.13;10313397;28;20057;-78
2022/11/13 11:38:24;;;;;;;7.90;6.40;;;;;;;7.46;64.19;100551.22;10330994;28;20065;-78
2022/11/13 11:43:42;;;;;;;8.07;5.60;;;;;;;7.65;63.78;100546.19;10327594;28;20086;-78
2022/11/13 11:48:44;;;;;;;9.35;4.72;;;;;;;7.74;63.36;100531.03;10329677;28;20813;-78
2022/11/13 11:54:07;;;;;;;8.57;5.35;;;;;;;7.90;63.01;100520.88;10327023;28;20058;-79
2022/11/13 11:59:19;;;;;;;7.05;5.45;;;;;;;7.90;62.16;100513.91;10340460;28;20058;-79
2022/11/13 12:04:59;;;;;;;9.65;5.85;;;;;;;7.94;62.50;100507.66;10343140;28;20057;-79
2022/11/13 12:10:14;;;;;;;7.38;5.00;;;;;;;8.19;62.85;100501.50;10340794;28;20046;-78
2022/11/13 12:15:53;;;;;;;6.85;5.20;;;;;;;8.48;62.17;100480.28;10327926;28;20412;-78
2022/11/13 12:21:20;;;;;;;6.25;4.90;;;;;;;8.69;61.98;100461.09;10326546;28;20808;-79
2022/11/13 12:26:40;;;;;;;6.28;4.82;;;;;;;8.92;61.06;100454.88;10329450;28;20060;-78
2022/11/13 12:32:15;;;;;;;6.22;4.82;;;;;;;9.02;60.47;100437.91;10342238;28;20053;-78
2022/11/13 12:37:33;;;;;;;8.90;5.03;;;;;;;9.18;60.54;100429.31;10336657;28;20045;-78
2022/11/13 12:42:50;;;;;;;7.35;5.60;;;;;;;9.33;60.34;100415.56;10322978;28;20409;-78
2022/11/13 12:48:12;;;;;;;7.43;5.32;;;;;;;9.45;59.81;100417.59;10328456;28;20046;-78
2022/11/13 12:53:28;;;;;;;6.70;5.53;;;;;;;9.63;59.90;100408.88;10327944;28;20508;-78
2022/11/13 12:58:35;;;;;;;8.00;5.72;;;;;;;9.79;60.25;100405.56;10330112;28;20054;-78
2022/11/13 13:04:03;;;;;;;7.22;5.47;;;;;;;9.83;60.64;100397.47;10324941;28;21115;-78
2022/11/13 13:09:24;;;;;;;7.60;5.43;;;;;;;9.95;59.95;100411.72;10329873;28;20054;-78
2022/11/13 13:15:03;;;;;;;6.53;4.80;;;;;;;10.07;60.06;100393.66;10327087;28;20057;-78
2022/11/13 13:20:36;;;;;;;8.10;4.57;;;;;;;10.14;58.65;100392.41;10332790;28;20419;-78
2022/11/13 13:25:41;;;;;;;7.43;4.93;;;;;;;10.24;58.18;100385.78;10336386;28;20049;-79
2022/11/13 13:31:12;;;;;;;6.18;4.50;;;;;;;10.33;57.91;100379.25;10346881;28;20046;-78
2022/11/13 13:36:40;;;;;;;6.10;4.23;;;;;;;10.38;58.46;100372.00;10329388;28;20045;-78
2022/11/13 13:42:04;;;;;;;8.35;5.38;;;;;;;10.47;58.50;100358.47;10338933;28;20499;-78
2022/11/13 13:47:17;;;;;;;7.00;4.30;;;;;;;10.53;58.84;100352.91;10344823;28;20688;-78
2022/11/13 13:52:33;;;;;;;7.88;4.50;;;;;;;10.34;59.13;100344.31;10331267;28;20073;-78
2022/11/13 13:57:40;;;;;;;5.78;4.10;;;;;;;10.25;59.69;100337.84;10326165;28;20042;-78
2022/11/13 14:02:49;;;;;;;6.70;3.97;;;;;;;10.35;59.42;100332.97;10347978;28;20050;-78
2022/11/13 14:07:54;;;;;;;7.32;4.30;;;;;;;10.48;59.25;100323.56;10333276;28;20052;-78
2022/11/13 14:13:03;;;;;;;7.30;4.32;;;;;;;10.36;59.46;100321.56;10346023;28;20054;-78
2022/11/13 14:18:13;;;;;;;6.72;4.13;;;;;;;10.29;59.22;100315.00;10323398;28;20093;-79
2022/11/13 14:23:41;;;;;;;7.95;4.40;;;;;;;10.34;58.93;100297.28;10341473;28;20147;-79
2022/11/13 14:28:58;;;;;;;7.03;4.30;;;;;;;10.39;58.76;100285.66;10331754;28;20057;-78
2022/11/13 14:34:13;;;;;;;7.53;4.30;;;;;;;10.35;58.73;100286.75;10344960;28;20046;-78
2022/11/13 14:39:35;;;;;;;6.78;5.15;;;;;;;10.11;59.72;100288.06;10348490;28;20057;-78
2022/11/13 14:44:40;;;;;;;7.15;4.45;;;;;;;9.99;59.99;100280.00;10331912;28;20492;-78
2022/11/13 14:49:45;;;;;;;7.70;5.55;;;;;;;9.86;60.25;100268.47;10320629;28;20699;-78
2022/11/13 14:55:00;;;;;;;10.98;7.20;;;;;;;9.71;60.60;100267.50;10329208;28;20057;-79
2022/11/13 15:00:27;;;;;;;7.88;5.88;;;;;;;9.64;60.43;100263.47;10330370;28;20093;-78
2022/11/13 15:05:31;;;;;;;8.07;5.55;;;;;;;9.74;60.46;100248.22;10330977;28;20052;-79
2022/11/13 15:10:40;;;;;;;8.73;6.10;;;;;;;9.56;61.06;100250.78;10327129;28;20050;-78
2022/11/13 15:15:44;;;;;;;8.98;6.60;;;;;;;9.37;61.53;100239.59;10332739;28;20046;-78
2022/11/13 15:20:45;;;;;;;10.60;5.00;;;;;;;9.20;61.57;100230.94;10343159;28;20058;-78
2022/11/13 15:25:48;;;;;;;7.22;4.53;;;;;;;9.02;61.98;100227.44;10332815;28;20499;-78
2022/11/13 15:31:17;;;;;;;7.38;4.95;;;;;;;8.72;62.50;100231.53;10325090;28;20072;-78
2022/11/13 15:36:24;;;;;;;7.35;4.80;;;;;;;8.57;63.05;100232.22;10333058;28;20046;-78
2022/11/13 15:41:32;;;;;;;7.07;4.88;;;;;;;8.45;63.37;100238.00;10326527;28;20420;-78
2022/11/13 15:46:34;;;;;;;13.18;5.43;;;;;;;8.23;63.85;100234.69;10332430;28;20100;-78
2022/11/13 15:51:47;;;;;;;11.20;7.13;;;;;;;7.97;64.64;100236.69;10327810;28;20065;-78
2022/11/13 15:56:49;;;;;;;17.30;10.05;;;;;;;7.81;64.85;100225.25;10346886;28;20387;-78
2022/11/13 16:02:03;;;;;;;10.18;6.90;;;;;;;7.62;65.30;100220.91;10326809;28;20057;-77
2022/11/13 16:07:27;;;;;;;14.55;8.93;;;;;;;7.45;65.83;100220.81;10328382;28;20575;-78
2022/11/13 16:12:34;;;;;;;11.85;7.28;;;;;;;7.37;66.00;100222.84;10327110;28;20100;-78
2022/11/13 16:18:18;;;;;;;18.75;9.95;;;;;;;7.23;66.13;100225.19;10324810;28;20061;-78
2022/11/13 16:23:22;;;;;;;13.07;7.85;;;;;;;7.14;66.49;100216.03;10337094;28;20057;-78
2022/11/13 16:28:25;;;;;;;16.98;8.80;;;;;;;7.07;66.49;100223.22;10344529;28;20054;-79
2022/11/13 16:33:26;;;;;;;17.38;11.57;;;;;;;6.97;66.57;100218.47;10322744;28;20049;-79
2022/11/13 16:38:29;;;;;;;13.50;7.68;;;;;;;6.87;66.91;100212.78;10320610;28;20173;-78
2022/11/13 16:43:30;;;;;;;8.55;6.22;;;;;;;6.79;66.91;100214.84;10332513;28;20060;-78
2022/11/13 16:48:32;;;;;;;9.57;6.80;;;;;;;6.66;67.60;100220.56;10333314;28;20057;-79
2022/11/13 16:53:35;;;;;;;9.00;6.72;;;;;;;6.56;67.54;100216.66;10333651;28;20488;-78
2022/11/13 16:58:37;;;;;;;10.68;7.18;;;;;;;6.46;67.65;100230.91;10328895;28;20050;-78
2022/11/13 17:03:41;;;;;;;9.40;6.78;;;;;;;6.30;67.91;100235.84;10322306;28;20062;-80
2022/11/13 17:08:51;;;;;;;9.15;6.72;;;;;;;6.18;68.11;100231.06;10349613;28;20042;-80
2022/11/13 17:14:03;;;;;;;10.30;6.40;;;;;;;6.11;68.12;100222.66;10337094;28;20046;-80
2022/11/13 17:19:05;;;;;;;11.48;7.05;;;;;;;6.04;68.05;100223.75;10355165;28;20975;-80
2022/11/13 17:24:10;;;;;;;9.43;6.20;;;;;;;5.99;68.17;100225.69;10336115;28;20061;-81
2022/11/13 17:29:13;;;;;;;10.52;7.40;;;;;;;5.92;68.22;100218.19;10346818;28;20054;-80
2022/11/13 17:34:19;;;;;;;9.50;6.85;;;;;;;5.78;68.76;100205.69;10344905;28;20074;-80
2022/11/13 17:39:21;;;;;;;9.30;7.13;;;;;;;5.73;68.44;100210.22;10335048;28;20061;-80
2022/11/13 17:44:23;;;;;;;15.98;8.75;;;;;;;5.66;68.34;100200.09;10333069;28;20495;-80
2022/11/13 17:49:38;;;;;;;13.35;9.30;;;;;;;5.44;69.03;100195.66;10324173;28;20137;-80
2022/11/13 17:54:58;;;;;;;15.60;9.52;;;;;;;5.31;69.42;100201.34;10331589;28;20057;-80
2022/11/13 18:00:03;;;;;;;13.15;9.82;;;;;;;5.30;69.22;100197.03;10332200;28;20046;-80
2022/11/13 18:05:19;;;;;;;10.80;8.25;;;;;;;5.16;69.17;100194.06;10335722;28;20060;-80
2022/11/13 18:10:23;;;;;;;17.05;12.10;;;;;;;5.13;69.46;100200.19;10335882;28;20069;-81
2022/11/13 18:15:32;;;;;;;20.15;16.15;;;;;;;4.92;69.40;100182.78;10333072;28;20061;-80
2022/11/13 18:20:42;;;;;;;16.40;11.68;;;;;;;4.84;69.62;100176.16;10332226;28;20512;-80
2022/11/13 18:25:45;;;;;;;17.60;11.40;;;;;;;4.85;69.40;100193.38;10347915;28;20497;-80
2022/11/13 18:30:48;;;;;;;18.65;14.95;;;;;;;4.82;69.52;100198.66;10345283;28;20057;-80
2022/11/13 18:35:57;;;;;;;14.85;10.10;;;;;;;4.78;69.42;100181.53;10333396;28;20053;-80
2022/11/13 18:41:10;;;;;;;13.88;10.23;;;;;;;4.73;69.71;100186.84;10330947;28;20058;-81
2022/11/13 18:46:18;;;;;;;15.93;11.65;;;;;;;4.61;69.74;100184.66;10342240;28;20050;-80
2022/11/13 18:51:23;;;;;;;14.60;10.18;;;;;;;4.50;69.82;100186.72;10325950;28;20050;-81
2022/11/13 18:56:28;;;;;;;17.52;11.25;;;;;;;4.49;69.80;100188.47;10340847;28;20046;-81
2022/11/13 19:01:38;;;;;;;14.68;10.57;;;;;;;4.43;70.13;100185.22;10338685;28;20073;-80
2022/11/13 19:06:42;;;;;;;14.05;9.57;;;;;;;4.43;69.87;100173.09;10326965;28;20517;-81
2022/11/13 19:11:53;;;;;;;16.15;10.55;;;;;;;4.41;69.89;100171.47;10331313;28;20054;-80
2022/11/13 19:16:54;;;;;;;20.83;15.27;;;;;;;4.41;69.61;100155.94;10350740;28;20057;-81
2022/11/13 19:21:56;;;;;;;18.73;13.13;;;;;;;4.33;69.75;100161.34;10334630;28;20054;-80
2022/11/13 19:26:58;;;;;;;16.52;10.95;;;;;;;4.31;69.85;100159.72;10333553;28;20057;-78
2022/11/13 19:32:01;;;;;;;12.55;8.25;;;;;;;4.26;69.70;100152.06;10334830;28;20058;-78
2022/11/13 19:37:03;;;;;;;14.60;9.02;;;;;;;4.22;69.48;100145.28;10331645;28;20053;-78
2022/11/13 19:42:04;;;;;;;15.20;11.13;;;;;;;4.18;69.43;100145.44;10332156;28;20077;-77
2022/11/13 19:47:06;;;;;;;17.10;12.85;;;;;;;4.04;69.64;100139.81;10330433;28;20500;-77
2022/11/13 19:52:20;;;;;;;13.73;9.40;;;;;;;3.97;69.86;100148.66;10338680;28;20146;-77
2022/11/13 19:57:22;;;;;;;18.70;11.45;;;;;;;3.94;69.62;100139.25;10322312;28;20050;-77
2022/11/13 20:02:23;;;;;;;15.23;10.27;;;;;;;3.85;69.96;100134.34;10330310;28;20061;-77
2022/11/13 20:07:25;;;;;;;12.48;9.63;;;;;;;3.69;69.82;100125.31;10339453;28;20045;-77
2022/11/13 20:12:28;;;;;;;15.73;10.90;;;;;;;3.65;69.77;100121.09;10332290;28;20064;-77
2022/11/13 20:17:30;;;;;;;16.80;10.50;;;;;;;3.63;70.29;100112.53;10333173;28;20050;-77
2022/11/13 20:22:33;;;;;;;22.38;15.00;;;;;;;3.62;69.90;100116.03;10331679;28;20050;-77
2022/11/13 20:27:35;;;;;;;38.97;15.88;;;;;;;3.46;70.07;100114.75;10340278;28;20144;-77
2022/11/13 20:32:39;;;;;;;14.77;11.32;;;;;;;3.40;70.21;100108.03;10328585;28;20141;-77
2022/11/13 20:37:40;;;;;;;12.70;9.45;;;;;;;3.45;70.12;100107.91;10327791;28;20454;-77
2022/11/13 20:42:42;;;;;;;15.30;10.52;;;;;;;3.43;70.10;100114.84;10330339;28;20049;-77
2022/11/13 20:47:43;;;;;;;14.65;10.70;;;;;;;3.40;69.66;100110.59;10328876;28;20057;-77
2022/11/13 20:52:45;;;;;;;12.95;10.10;;;;;;;3.37;69.65;100104.69;10339859;28;20057;-77
2022/11/13 20:57:47;;;;;;;20.33;14.23;;;;;;;3.22;69.89;100115.44;10326854;28;20050;-77
2022/11/13 21:02:49;;;;;;;26.58;18.55;;;;;;;3.24;69.93;100113.66;10337761;28;20050;-77
2022/11/13 21:07:52;;;;;;;27.77;17.70;;;;;;;3.17;69.74;100110.41;10346194;28;20054;-77
2022/11/13 21:12:53;;;;;;;44.60;14.07;;;;;;;3.13;69.61;100098.44;10341333;28;20054;-77
2022/11/13 21:17:57;;;;;;;57.35;12.13;;;;;;;3.04;69.77;100101.28;10325854;28;20050;-77
2022/11/13 21:22:59;;;;;;;26.50;16.48;;;;;;;3.00;69.37;100095.34;10326509;28;20054;-77
2022/11/13 21:28:00;;;;;;;17.23;12.18;;;;;;;2.74;69.63;100092.59;10329734;28;20637;-77
2022/11/13 21:33:02;;;;;;;16.20;11.80;;;;;;;2.70;69.94;100088.38;10339637;28;20057;-77
2022/11/13 21:38:04;;;;;;;14.45;9.38;;;;;;;2.77;70.12;100097.66;10335809;28;20054;-77
2022/11/13 21:43:06;;;;;;;14.93;9.77;;;;;;;2.80;69.82;100096.75;10339749;28;20068;-77
2022/11/13 21:48:07;;;;;;;52.40;15.18;;;;;;;2.76;69.46;100097.72;10336968;28;20051;-76
2022/11/13 21:53:10;;;;;;;19.00;14.25;;;;;;;2.67;69.72;100088.47;10336334;28;20061;-77
2022/11/13 21:58:13;;;;;;;19.00;12.85;;;;;;;2.60;69.54;100083.50;10338285;28;20046;-77
2022/11/13 22:03:15;;;;;;;32.72;14.57;;;;;;;2.58;69.55;100080.94;10344069;28;20054;-77
2022/11/13 22:08:17;;;;;;;171.35;16.15;;;;;;;2.45;69.57;100074.41;10336676;28;20060;-76
2022/11/13 22:13:18;;;;;;;201.63;15.35;;;;;;;2.30;69.45;100074.75;10337007;28;20061;-76
2022/11/13 22:18:20;;;;;;;152.75;13.43;;;;;;;2.27;69.30;100064.53;10342174;28;20492;-77
2022/11/13 22:23:35;;;;;;;280.73;16.65;;;;;;;2.23;69.47;100057.75;10336813;28;20149;-77
2022/11/13 22:28:38;;;;;;;248.43;15.65;;;;;;;2.16;69.52;100051.00;10342739;28;20057;-77
2022/11/13 22:33:40;;;;;;;136.35;10.90;;;;;;;2.18;69.87;100044.09;10337761;28;20440;-77
2022/11/13 22:38:49;;;;;;;284.80;18.48;;;;;;;2.24;69.70;100043.94;10334325;28;20057;-77
2022/11/13 22:43:54;;;;;;;387.23;19.52;;;;;;;2.19;69.65;100041.47;10336239;28;20068;-76
2022/11/13 22:48:58;;;;;;;180.70;13.27;;;;;;;2.06;70.00;100036.63;10350866;28;20064;-77
2022/11/13 22:54:02;;;;;;;334.73;19.65;;;;;;;2.05;69.83;100030.63;10335076;28;20503;-76
2022/11/13 22:59:05;;;;;;;249.88;14.15;;;;;;;2.02;69.56;100030.72;10332780;28;20042;-77
2022/11/13 23:04:10;;;;;;;242.95;13.77;;;;;;;1.98;69.73;100025.66;10334989;28;20088;-76
2022/11/13 23:09:12;;;;;;;253.45;16.00;;;;;;;2.00;69.96;100029.91;10337197;28;20054;-76
2022/11/13 23:14:16;;;;;;;249.10;14.77;;;;;;;2.08;69.78;100030.56;10332484;28;20054;-76
2022/11/13 23:19:18;;;;;;;214.45;15.38;;;;;;;1.91;69.52;100030.09;10334497;28;20050;-77
2022/11/13 23:24:20;;;;;;;242.98;14.52;;;;;;;1.85;69.83;100025.09;10344020;28;20057;-76
2022/11/13 23:29:21;;;;;;;249.45;15.43;;;;;;;1.87;69.65;100028.47;10334867;28;20077;-77
2022/11/13 23:34:23;;;;;;;218.18;15.80;;;;;;;1.80;69.76;100018.34;10330676;28;20058;-77
2022/11/13 23:39:45;;;;;;;;;;;;;;;1.56;70.41;100009.44;10337190;28;20050;-77
2022/11/13 23:44:46;;;;;;;59.00;9.02;;;;;;;1.78;70.14;100004.66;10332054;28;19925;-77
2022/11/13 23:49:48;;;;;;;84.18;11.70;;;;;;;1.87;69.81;99994.94;10332062;28;20055;-77
2022/11/13 23:54:50;;;;;;;200.20;15.65;;;;;;;1.82;69.67;99983.06;10340618;28;20058;-77
2022/11/13 23:59:51;;;;;;;214.13;13.70;;;;;;;1.71;69.81;99985.03;10332087;28;20073;-76
